Time;durP1;ratioP1;P1;durP2;ratioP2;P2;SDS_P1;SDS_P2;PMS_P1;PMS_P2;Temp;Humidity;BMP_temperature;BMP_pressure;BME280_temperature;BME280_humidity;BME280_pressure;Samples;Min_cycle;Max_cycle;Signal;HPM_P1;HPM_P2
2021/01/01 00:01:06;;;;;;;;;;;;;;;2.02;96.49;97891.28;5058514;28;19935;-87
2021/01/01 00:03:32;;;;;;;;;;;;;;;2.24;96.42;97891.78;5049182;28;20400;-85
2021/01/01 00:05:57;;;;;;;;;;;;;;;2.32;95.36;97892.50;5054571;28;20386;-85
2021/01/01 00:08:22;;;;;;;;;;;;;;;2.08;96.07;97892.03;5046276;28;19969;-85
2021/01/01 00:10:49;;;;;;;;;;;;;;;1.82;97.62;97894.13;5056167;28;19915;-85
2021/01/01 00:13:15;;;;;;;;;;;;;;;1.87;97.94;97890.66;5048390;28;19911;-86
2021/01/01 00:15:40;;;;;;;;;;;;;;;2.06;97.42;97893.75;5054972;28;20719;-84
2021/01/01 00:18:05;;;;;;;;;;;;;;;2.19;96.15;97893.53;5049339;28;19928;-84
2021/01/01 00:20:31;;;;;;;;;;;;;;;2.39;95.71;97896.59;5063257;28;20544;-84
2021/01/01 00:22:56;;;;;;;;;;;;;;;2.43;95.03;97893.16;5065351;28;19916;-84
2021/01/01 00:25:22;;;;;;;;;;;;;;;2.51;95.16;97896.41;5064792;28;19916;-85
2021/01/01 00:27:47;;;;;;;;;;;;;;;2.42;95.01;97899.09;5048992;28;20807;-84
2021/01/01 00:30:13;;;;;;;;;;;;;;;2.33;94.70;97904.34;5046229;28;19916;-85
2021/01/01 00:32:42;;;;;;;;;;;;;;;2.15;95.71;97902.94;5046190;28;19916;-85
2021/01/01 00:35:07;;;;;;;;;;;;;;;2.01;96.69;97909.94;5053035;28;19931;-86
2021/01/01 00:37:36;;;;;;;;;;;;;;;1.97;97.80;97898.16;5054511;28;19916;-84
2021/01/01 00:40:03;;;;;;;;;;;;;;;1.79;98.41;97897.53;5047413;28;19984;-85
2021/01/01 00:42:29;;;;;;;;;;;;;;;1.46;100.00;97899.72;5049873;28;20006;-85
2021/01/01 00:44:54;;;;;;;;;;;;;;;1.42;100.00;97900.59;5055424;28;20357;-85
2021/01/01 00:47:19;;;;;;;;;;;;;;;1.37;100.00;97901.50;5056633;28;19916;-87
2021/01/01 00:49:45;;;;;;;;;;;;;;;1.40;100.00;97906.56;5046950;28;20407;-86
2021/01/01 00:52:10;;;;;;;;;;;;;;;1.54;100.00;97904.66;5056283;28;19916;-85
2021/01/01 00:54:35;;;;;;;;;;;;;;;1.65;100.00;97907.91;5058764;28;19916;-85
2021/01/01 00:57:01;;;;;;;;;;;;;;;1.53;100.00;97903.00;5065046;28;19973;-84
2021/01/01 00:59:28;;;;;;;;;;;;;;;1.49;100.00;97906.44;5045784;28;20819;-86
2021/01/01 01:01:53;;;;;;;;;;;;;;;1.64;100.00;97906.22;5063836;28;19917;-85
2021/01/01 01:04:18;;;;;;;;;;;;;;;1.68;100.00;97918.00;5046418;28;19926;-85
2021/01/01 01:06:44;;;;;;;;;;;;;;;1.60;100.00;97912.22;5034575;28;20294;-85
2021/01/01 01:09:09;;;;;;;;;;;;;;;1.49;100.00;97911.50;5052477;28;20354;-85
2021/01/01 01:11:35;;;;;;;;;;;;;;;1.32;100.00;97919.31;5055223;28;19931;-85
2021/01/01 01:14:02;;;;;;;;;;;;;;;1.45;100.00;97925.09;5043740;28;20608;-85
2021/01/01 01:16:28;;;;;;;;;;;;;;;1.51;100.00;97916.56;5063178;28;19927;-85
2021/01/01 01:18:54;;;;;;;;;;;;;;;1.41;100.00;97921.75;5063245;28;20012;-84
2021/01/01 01:21:20;;;;;;;;;;;;;;;1.43;100.00;97920.03;5063503;28;19965;-85
2021/01/01 01:23:45;;;;;;;;;;;;;;;1.31;100.00;97927.81;5048129;28;19927;-85
2021/01/01 01:26:11;;;;;;;;;;;;;;;1.60;100.00;97926.59;5048059;28;19911;-85
2021/01/01 01:28:36;;;;;;;;;;;;;;;1.67;100.00;97930.72;5062443;28;19923;-85
2021/01/01 01:31:02;;;;;;;;;;;;;;;1.73;100.00;97929.78;5063167;28;19915;-84
2021/01/01 01:33:27;;;;;;;;;;;;;;;1.49;100.00;97941.13;5055346;28;20004;-85
2021/01/01 01:35:53;;;;;;;;;;;;;;;1.31;100.00;97942.19;5069672;28;19920;-86
2021/01/01 01:38:21;;;;;;;;;;;;;;;1.24;100.00;97947.31;5055199;28;20388;-85
2021/01/01 01:40:46;;;;;;;;;;;;;;;1.47;100.00;97943.66;5070878;28;20336;-86
2021/01/01 01:43:12;;;;;;;;;;;;;;;1.61;100.00;97935.88;5072623;28;19923;-85
2021/01/01 01:45:37;;;;;;;;;;;;;;;2.00;99.65;97942.09;5061982;28;20001;-85
2021/01/01 01:48:02;;;;;;;;;;;;;;;2.37;97.95;97938.97;5055554;28;20007;-85
2021/01/01 01:50:28;;;;;;;;;;;;;;;2.16;97.31;97936.78;5061296;28;20050;-85
2021/01/01 01:52:53;;;;;;;;;;;;;;;1.87;99.08;97946.53;5062488;28;20007;-85
2021/01/01 01:55:18;;;;;;;;;;;;;;;1.40;100.00;97952.22;5056051;28;19916;-84
2021/01/01 01:57:44;;;;;;;;;;;;;;;1.23;100.00;97939.72;5070819;28;19924;-85
2021/01/01 02:01:11;;;;;;;;;;;;;;;1.33;100.00;97946.38;5064596;28;19997;-85
2021/01/01 02:03:04;;;;;;;;;;;;;;;1.61;100.00;97951.09;5063809;28;19920;-85
2021/01/01 02:05:29;;;;;;;;;;;;;;;2.06;99.30;97954.69;5059237;28;19916;-86
2021/01/01 02:07:55;;;;;;;;;;;;;;;2.35;97.09;97944.94;5061985;28;19920;-85
2021/01/01 02:10:20;;;;;;;;;;;;;;;2.30;97.45;97952.63;5055015;28;19923;-86
2021/01/01 02:12:46;;;;;;;;;;;;;;;2.29;96.91;97948.44;5062065;28;20004;-84
2021/01/01 02:15:12;;;;;;;;;;;;;;;1.82;99.01;97957.59;5060675;28;20365;-86
2021/01/01 02:17:37;;;;;;;;;;;;;;;1.51;100.00;97960.53;5051959;28;19936;-85
2021/01/01 02:20:03;;;;;;;;;;;;;;;1.18;100.00;97962.59;5051538;28;19920;-84
2021/01/01 02:22:31;;;;;;;;;;;;;;;1.05;100.00;97961.06;5041496;28;20589;-85
2021/01/01 02:24:56;;;;;;;;;;;;;;;1.21;100.00;97961.75;5034547;28;20024;-85
2021/01/01 02:27:22;;;;;;;;;;;;;;;1.82;100.00;97955.88;5052429;28;19961;-85
2021/01/01 02:29:47;;;;;;;;;;;;;;;1.97;99.51;97952.31;5035309;28;19924;-85
2021/01/01 02:32:12;;;;;;;;;;;;;;;1.47;100.00;97963.97;5035211;28;19926;-85
2021/01/01 02:34:38;;;;;;;;;;;;;;;1.00;100.00;97967.88;5034905;28;19921;-85
2021/01/01 02:37:03;;;;;;;;;;;;;;;0.88;100.00;97965.47;5033391;28;19930;-85
2021/01/01 02:39:28;;;;;;;;;;;;;;;0.81;100.00;97973.13;5032666;28;19920;-85
2021/01/01 02:41:54;;;;;;;;;;;;;;;0.87;100.00;97976.44;5031047;28;19912;-85
2021/01/01 02:44:19;;;;;;;;;;;;;;;0.83;100.00;97968.03;5030651;28;19922;-85
2021/01/01 02:46:44;;;;;;;;;;;;;;;0.74;100.00;97974.03;5029398;28;19940;-84
2021/01/01 02:49:10;;;;;;;;;;;;;;;0.80;100.00;97971.44;5029210;28;20021;-85
2021/01/01 02:51:35;;;;;;;;;;;;;;;0.85;100.00;97970.56;5030346;28;20011;-85
2021/01/01 02:54:00;;;;;;;;;;;;;;;0.81;100.00;97968.06;5046608;28;21006;-85
2021/01/01 02:56:26;;;;;;;;;;;;;;;0.88;100.00;97971.38;5029973;28;19930;-85
2021/01/01 02:58:51;;;;;;;;;;;;;;;0.87;100.00;97976.44;5029741;28;19920;-84
2021/01/01 03:01:18;;;;;;;;;;;;;;;0.90;100.00;97976.44;5047476;28;19956;-86
2021/01/01 03:03:44;;;;;;;;;;;;;;;0.78;100.00;97973.16;5048215;28;19965;-85
2021/01/01 03:06:09;;;;;;;;;;;;;;;0.87;100.00;97966.31;5046578;28;19916;-85
2021/01/01 03:08:34;;;;;;;;;;;;;;;0.80;100.00;97976.53;5046190;28;19955;-85
2021/01/01 03:11:00;;;;;;;;;;;;;;;0.71;100.00;97975.75;5035335;28;20960;-85
2021/01/01 03:13:25;;;;;;;;;;;;;;;0.71;100.00;97976.63;5030611;28;19942;-84
2021/01/01 03:15:50;;;;;;;;;;;;;;;0.63;100.00;97975.81;5030462;28;19920;-85
2021/01/01 03:18:15;;;;;;;;;;;;;;;0.62;100.00;97981.75;5038465;28;19972;-86
2021/01/01 03:20:41;;;;;;;;;;;;;;;0.58;100.00;97983.47;5036715;28;19924;-84
2021/01/01 03:23:06;;;;;;;;;;;;;;;0.62;100.00;97979.22;5031344;28;19917;-85
2021/01/01 03:25:31;;;;;;;;;;;;;;;0.58;100.00;97982.63;5036677;28;19951;-85
2021/01/01 03:27:57;;;;;;;;;;;;;;;0.62;100.00;97979.22;5040202;28;20222;-85
2021/01/01 03:30:22;;;;;;;;;;;;;;;0.58;100.00;97985.16;5036911;28;19916;-85
2021/01/01 03:32:47;;;;;;;;;;;;;;;0.53;100.00;97984.38;5034362;28;19920;-85
2021/01/01 03:35:13;;;;;;;;;;;;;;;0.55;100.00;97987.75;5035774;28;19970;-85
2021/01/01 03:37:38;;;;;;;;;;;;;;;0.65;100.00;97981.72;5037183;28;19924;-84
2021/01/01 03:40:04;;;;;;;;;;;;;;;0.69;100.00;97983.38;5037745;28;20452;-85
2021/01/01 03:42:29;;;;;;;;;;;;;;;0.68;100.00;97986.75;5036237;28;19920;-85
2021/01/01 03:44:54;;;;;;;;;;;;;;;0.66;100.00;97983.38;5044971;28;19912;-85
2021/01/01 03:47:20;;;;;;;;;;;;;;;0.48;100.00;97981.88;5047353;28;19924;-85
2021/01/01 03:49:45;;;;;;;;;;;;;;;0.54;100.00;97986.88;5038094;28;19999;-85
2021/01/01 03:52:11;;;;;;;;;;;;;;;0.57;100.00;97993.59;5036273;28;19912;-84
2021/01/01 03:54:36;;;;;;;;;;;;;;;0.51;100.00;97986.91;5029405;28;19912;-84
2021/01/01 03:57:01;;;;;;;;;;;;;;;0.50;100.00;97994.50;5030785;28;19978;-86
2021/01/01 03:59:27;;;;;;;;;;;;;;;0.46;100.00;97990.31;5037038;28;20292;-85
2021/01/01 04:01:52;;;;;;;;;;;;;;;0.55;100.00;97992.81;5030383;28;20362;-85
2021/01/01 04:04:17;;;;;;;;;;;;;;;0.51;100.00;97998.75;5037678;28;20203;-85
2021/01/01 04:06:44;;;;;;;;;;;;;;;0.52;100.00;97993.63;5035678;28;20515;-85
2021/01/01 04:09:09;;;;;;;;;;;;;;;0.49;100.00;97995.38;5039564;28;20565;-84
2021/01/01 04:11:35;;;;;;;;;;;;;;;0.55;100.00;97996.16;5029812;28;19928;-86
2021/01/01 04:14:00;;;;;;;;;;;;;;;0.56;100.00;97997.00;5046595;28;19950;-86
2021/01/01 04:16:26;;;;;;;;;;;;;;;0.52;100.00;98003.78;5030774;28;20381;-85
2021/01/01 04:18:51;;;;;;;;;;;;;;;0.52;100.00;98000.41;5049503;28;19916;-85
2021/01/01 04:21:16;;;;;;;;;;;;;;;0.55;100.00;98000.41;5059645;28;20669;-85
2021/01/01 04:23:42;;;;;;;;;;;;;;;0.54;100.00;98003.78;5056702;28;20514;-85
2021/01/01 04:26:09;;;;;;;;;;;;;;;0.52;100.00;98011.38;5054424;28;20015;-85
2021/01/01 04:28:34;;;;;;;;;;;;;;;0.51;100.00;98008.88;5047486;28;20412;-84
2021/01/01 04:30:59;;;;;;;;;;;;;;;0.52;100.00;98010.53;5056101;28;19942;-84
2021/01/01 04:33:25;;;;;;;;;;;;;;;0.53;100.00;98008.00;5057298;28;19923;-85
2021/01/01 04:35:50;;;;;;;;;;;;;;;0.56;100.00;98007.13;5055449;28;19916;-85
2021/01/01 04:38:15;;;;;;;;;;;;;;;0.53;100.00;98012.25;5054073;28;20381;-85
2021/01/01 04:40:40;;;;;;;;;;;;;;;0.60;100.00;98007.09;5057412;28;19924;-86
2021/01/01 04:43:06;;;;;;;;;;;;;;;0.63;100.00;98013.84;5060291;28;19916;-86
2021/01/01 04:45:32;;;;;;;;;;;;;;;0.63;100.00;98013.84;5058498;28;19927;-86
2021/01/01 04:47:58;;;;;;;;;;;;;;;0.58;100.00;98015.56;5056732;28;20010;-85
2021/01/01 04:50:23;;;;;;;;;;;;;;;0.51;100.00;98013.94;5049269;28;21015;-85
2021/01/01 04:52:49;;;;;;;;;;;;;;;0.53;100.00;98022.38;5066183;28;19912;-85
2021/01/01 04:55:15;;;;;;;;;;;;;;;0.52;100.00;98020.66;5049819;28;19919;-85
2021/01/01 04:57:41;;;;;;;;;;;;;;;0.59;100.00;98014.69;5057374;28;19916;-86
2021/01/01 05:00:06;;;;;;;;;;;;;;;0.54;100.00;98019.81;5066604;28;19958;-85
2021/01/01 05:02:32;;;;;;;;;;;;;;;0.57;100.00;98022.34;5056768;28;19920;-86
2021/01/01 05:04:57;;;;;;;;;;;;;;;0.60;100.00;98018.94;5047942;28;19923;-84
2021/01/01 05:07:22;;;;;;;;;;;;;;;0.61;100.00;98026.50;5057269;28;20339;-84
2021/01/01 05:09:48;;;;;;;;;;;;;;;0.58;100.00;98030.78;5047774;28;19912;-85
2021/01/01 05:12:13;;;;;;;;;;;;;;;0.60;100.00;98019.75;5057516;28;20274;-85
2021/01/01 05:14:39;;;;;;;;;;;;;;;0.83;100.00;98017.03;5066630;28;19931;-86
2021/01/01 05:17:05;;;;;;;;;;;;;;;0.97;100.00;98028.75;5056451;28;19924;-85
2021/01/01 05:19:40;;;;;;;;;;;;;;;0.89;100.00;98030.50;5056101;28;19920;-85
2021/01/01 05:22:06;;;;;;;;;;;;;;;0.72;100.00;98034.03;5064191;28;19920;-84
2021/01/01 05:24:35;;;;;;;;;;;;;;;0.71;100.00;98036.56;5060744;28;20218;-85
2021/01/01 05:27:04;;;;;;;;;;;;;;;0.74;100.00;98047.53;5056390;28;20428;-85
2021/01/01 05:29:29;;;;;;;;;;;;;;;0.70;100.00;98047.56;5052285;28;19959;-87
2021/01/01 05:31:54;;;;;;;;;;;;;;;0.71;100.00;98041.63;5065645;28;20403;-85
2021/01/01 05:34:24;;;;;;;;;;;;;;;0.91;100.00;98039.75;5056279;28;20604;-84
2021/01/01 05:36:49;;;;;;;;;;;;;;;0.95;100.00;98045.66;5057495;28;20387;-85
2021/01/01 05:39:17;;;;;;;;;;;;;;;0.79;100.00;98040.72;5060622;28;19916;-85
2021/01/01 05:41:44;;;;;;;;;;;;;;;0.61;100.00;98045.94;5065445;28;20408;-85
2021/01/01 05:44:09;;;;;;;;;;;;;;;0.60;100.00;98050.16;5048010;28;19916;-84
2021/01/01 05:46:35;;;;;;;;;;;;;;;0.64;100.00;98045.94;5065204;28;19935;-85
2021/01/01 05:49:00;;;;;;;;;;;;;;;0.66;100.00;98048.44;5049039;28;19912;-85
2021/01/01 05:51:26;;;;;;;;;;;;;;;0.72;100.00;98056.00;5060378;28;19970;-85
2021/01/01 05:53:52;;;;;;;;;;;;;;;0.66;100.00;98054.34;5057597;28;19927;-85
2021/01/01 05:56:17;;;;;;;;;;;;;;;0.65;100.00;98059.44;5053624;28;19927;-86
2021/01/01 05:58:43;;;;;;;;;;;;;;;0.62;100.00;98057.78;5054938;28;19939;-85
2021/01/01 06:01:08;;;;;;;;;;;;;;;0.64;100.00;98056.06;5056016;28;19959;-85
2021/01/01 06:03:33;;;;;;;;;;;;;;;0.68;100.00;98067.00;5062695;28;19919;-85
2021/01/01 06:06:04;;;;;;;;;;;;;;;0.71;100.00;98067.84;5054595;28;19916;-84
2021/01/01 06:08:29;;;;;;;;;;;;;;;0.65;100.00;98072.94;5054485;28;20392;-84
2021/01/01 06:11:04;;;;;;;;;;;;;;;0.81;100.00;98069.44;5047888;28;19916;-85
2021/01/01 06:13:33;;;;;;;;;;;;;;;1.00;100.00;98080.28;5050805;28;19994;-85
2021/01/01 06:16:02;;;;;;;;;;;;;;;1.11;100.00;98077.63;5067357;28;20654;-85
2021/01/01 06:18:34;;;;;;;;;;;;;;;1.50;100.00;98079.78;5061747;28;19930;-85
2021/01/01 06:21:06;;;;;;;;;;;;;;;1.86;100.00;98078.53;5068504;28;19924;-85
2021/01/01 06:23:32;;;;;;;;;;;;;;;2.04;100.00;98080.84;5060244;28;20039;-86
2021/01/01 06:25:58;;;;;;;;;;;;;;;1.63;100.00;98086.44;5051482;28;19964;-85
2021/01/01 06:28:24;;;;;;;;;;;;;;;1.39;100.00;98087.50;5061919;28;19963;-86
2021/01/01 06:30:49;;;;;;;;;;;;;;;1.29;100.00;98093.53;5065949;28;19922;-86
2021/01/01 06:33:15;;;;;;;;;;;;;;;1.28;100.00;98091.84;5051499;28;19916;-85
2021/01/01 06:35:43;;;;;;;;;;;;;;;1.22;100.00;98100.34;5051179;28;20327;-85
2021/01/01 06:38:09;;;;;;;;;;;;;;;1.15;100.00;98093.66;5066102;28;20608;-85
2021/01/01 06:40:35;;;;;;;;;;;;;;;1.38;100.00;98103.59;5050193;28;20007;-85
2021/01/01 06:43:02;;;;;;;;;;;;;;;1.62;100.00;98100.81;5049959;28;20408;-85
2021/01/01 06:45:31;;;;;;;;;;;;;;;1.70;100.00;98104.97;5050059;28;19927;-85
2021/01/01 06:47:56;;;;;;;;;;;;;;;1.78;100.00;98105.69;5068718;28;19950;-85
2021/01/01 06:50:26;;;;;;;;;;;;;;;1.73;100.00;98112.53;5066654;28;19939;-86
2021/01/01 06:52:59;;;;;;;;;;;;;;;1.67;100.00;98113.47;5051060;28;20360;-86
2021/01/01 06:55:34;;;;;;;;;;;;;;;1.92;100.00;98119.09;5058641;28;19975;-85
2021/01/01 06:57:59;;;;;;;;;;;;;;;2.01;100.00;98116.44;5057935;28;19978;-85
2021/01/01 07:00:45;;;;;;;;;;;;;;;2.06;99.00;98122.31;5060198;28;20607;-85
2021/01/01 07:03:25;;;;;;;;;;;;;;;1.87;99.26;98124.22;5068071;28;19920;-85
2021/01/01 07:05:51;;;;;;;;;;;;;;;2.17;98.95;98123.91;5080952;28;19961;-86
2021/01/01 07:08:55;;;;;;;;;;;;;;;2.13;98.51;98117.16;5067991;28;19915;-86
2021/01/01 07:11:23;;;;;;;;;;;;;;;2.20;98.40;98119.59;5023208;28;19960;-85
2021/01/01 07:13:51;;;;;;;;;;;;;;;2.25;98.35;98124.63;5017050;28;19921;-85
2021/01/01 07:16:23;;;;;;;;;;;;;;;2.16;97.89;98127.28;5014418;28;19913;-85
2021/01/01 07:18:48;;;;;;;;;;;;;;;2.02;98.46;98133.34;5066945;28;20632;-85
2021/01/01 07:21:15;;;;;;;;;;;;;;;1.88;98.37;98137.75;5067598;28;19920;-85
2021/01/01 07:23:40;;;;;;;;;;;;;;;1.79;99.94;98135.31;5051282;28;19912;-85
2021/01/01 07:26:06;;;;;;;;;;;;;;;1.73;100.00;98135.38;5050110;28;20056;-84
2021/01/01 07:28:32;;;;;;;;;;;;;;;1.67;100.00;98139.66;5067688;28;20015;-86
2021/01/01 07:30:57;;;;;;;;;;;;;;;1.55;100.00;98139.81;5067758;28;19920;-84
2021/01/01 07:33:23;;;;;;;;;;;;;;;1.71;100.00;98143.03;5061000;28;19923;-86
2021/01/01 07:35:52;;;;;;;;;;;;;;;1.62;100.00;98146.50;5068725;28;19923;-85
2021/01/01 07:38:20;;;;;;;;;;;;;;;1.74;99.66;98150.59;5084760;28;19969;-84
2021/01/01 07:40:46;;;;;;;;;;;;;;;1.66;99.98;98148.13;5041511;28;19931;-84
2021/01/01 07:43:12;;;;;;;;;;;;;;;1.61;100.00;98143.97;5049456;28;20447;-84
2021/01/01 07:45:37;;;;;;;;;;;;;;;1.61;99.71;98154.94;5049815;28;19927;-84
2021/01/01 07:48:03;;;;;;;;;;;;;;;1.58;100.00;98155.00;5057566;28;19931;-85
2021/01/01 07:50:29;;;;;;;;;;;;;;;1.74;99.32;98152.31;5057310;28;20377;-84
2021/01/01 07:53:05;;;;;;;;;;;;;;;1.73;99.03;98155.69;5084128;28;19916;-85
2021/01/01 07:55:30;;;;;;;;;;;;;;;1.65;99.72;98156.59;5066910;28;19916;-83
2021/01/01 07:58:11;;;;;;;;;;;;;;;1.73;99.18;98158.22;5050395;28;19935;-83
2021/01/01 08:00:37;;;;;;;;;;;;;;;1.68;99.05;98161.63;5078678;28;19937;-85
2021/01/01 08:03:03;;;;;;;;;;;;;;;1.51;100.00;98162.69;5050821;28;20499;-83
2021/01/01 08:05:29;;;;;;;;;;;;;;;1.78;98.80;98167.50;5051663;28;20038;-83
2021/01/01 08:07:54;;;;;;;;;;;;;;;1.76;98.80;98163.28;5057850;28;20500;-83
2021/01/01 08:10:32;;;;;;;;;;;;;;;1.82;98.36;98173.34;5068053;28;20296;-82
2021/01/01 08:12:58;;;;;;;;;;;;;;;1.90;97.91;98174.13;5068041;28;19967;-83
2021/01/01 08:15:30;;;;;;;;;;;;;;;1.85;97.68;98178.41;5066238;28;19951;-83
2021/01/01 08:17:55;;;;;;;;;;;;;;;1.87;96.86;98182.63;5044099;28;19935;-84
2021/01/01 08:20:21;;;;;;;;;;;;;;;1.98;96.85;98184.19;5020948;28;20030;-83
2021/01/01 08:22:47;;;;;;;;;;;;;;;1.93;97.67;98179.16;5030193;28;19959;-84
2021/01/01 08:25:13;;;;;;;;;;;;;;;2.05;97.37;98180.72;5039937;28;19913;-84
2021/01/01 08:27:38;;;;;;;;;;;;;;;1.87;98.35;98181.75;5029956;28;19919;-87
2021/01/01 08:30:04;;;;;;;;;;;;;;;1.97;98.77;98192.69;5029828;28;19969;-84
2021/01/01 08:32:30;;;;;;;;;;;;;;;1.91;98.32;98183.41;5021284;28;20420;-85
2021/01/01 08:34:55;;;;;;;;;;;;;;;1.83;98.73;98190.28;5036365;28;19920;-84
2021/01/01 08:37:21;;;;;;;;;;;;;;;1.36;100.00;98183.94;5029016;28;20385;-85
2021/01/01 08:39:47;;;;;;;;;;;;;;;1.58;100.00;98190.50;5029064;28;19927;-84
2021/01/01 08:42:25;;;;;;;;;;;;;;;1.35;100.00;98190.72;5027739;28;19916;-86
2021/01/01 08:44:56;;;;;;;;;;;;;;;1.84;98.58;98189.41;5027042;28;19965;-87
2021/01/01 08:47:21;;;;;;;;;;;;;;;1.78;99.05;98189.47;5044803;28;19970;-84
2021/01/01 08:49:46;;;;;;;;;;;;;;;2.01;98.35;98195.16;5029088;28;19975;-84
2021/01/01 08:52:12;;;;;;;;;;;;;;;1.75;99.07;98203.03;5030053;28;19959;-84
2021/01/01 08:54:37;;;;;;;;;;;;;;;2.06;97.74;98201.03;5045984;28;19971;-84
2021/01/01 08:57:03;;;;;;;;;;;;;;;1.93;99.30;98207.09;5029649;28;19916;-84
2021/01/01 08:59:29;;;;;;;;;;;;;;;1.64;100.00;98207.38;5045161;28;20701;-84
2021/01/01 09:01:54;;;;;;;;;;;;;;;1.49;100.00;98205.81;5044741;28;19920;-83
2021/01/01 09:04:23;;;;;;;;;;;;;;;1.84;100.00;98208.03;5029247;28;19913;-84
2021/01/01 09:06:52;;;;;;;;;;;;;;;2.00;99.24;98212.94;5044740;28;19965;-84
2021/01/01 09:09:18;;;;;;;;;;;;;;;1.93;98.33;98216.41;5035650;28;19977;-84
2021/01/01 09:11:43;;;;;;;;;;;;;;;2.04;99.56;98210.38;5027592;28;19916;-85
2021/01/01 09:14:08;;;;;;;;;;;;;;;2.01;100.00;98220.56;5027724;28;19917;-84
2021/01/01 09:16:34;;;;;;;;;;;;;;;2.06;98.78;98221.34;5046497;28;19924;-84
2021/01/01 09:19:08;;;;;;;;;;;;;;;1.88;100.00;98227.44;5044870;28;20293;-85
2021/01/01 09:21:34;;;;;;;;;;;;;;;1.98;100.00;98225.66;5040690;28;19974;-86
2021/01/01 09:23:59;;;;;;;;;;;;;;;1.80;100.00;98220.75;5043024;28;19986;-84
2021/01/01 09:26:25;;;;;;;;;;;;;;;1.72;100.00;98230.16;5046999;28;19916;-85
2021/01/01 09:29:01;;;;;;;;;;;;;;;1.87;100.00;98227.47;5046280;28;19920;-87
2021/01/01 09:31:27;;;;;;;;;;;;;;;1.72;100.00;98227.63;5063334;28;19998;-87
2021/01/01 09:33:59;;;;;;;;;;;;;;;1.54;100.00;98234.53;5045778;28;19998;-85
2021/01/01 09:36:24;;;;;;;;;;;;;;;1.46;100.00;98236.31;5060874;28;19916;-83
2021/01/01 09:38:50;;;;;;;;;;;;;;;1.76;100.00;98232.66;5060864;28;20029;-86
2021/01/01 09:41:16;;;;;;;;;;;;;;;1.62;100.00;98242.94;5063733;28;19920;-84
2021/01/01 09:43:42;;;;;;;;;;;;;;;1.59;100.00;98242.94;5057727;28;19912;-86
2021/01/01 09:46:08;;;;;;;;;;;;;;;1.72;100.00;98245.38;5062616;28;19921;-86
2021/01/01 09:48:33;;;;;;;;;;;;;;;2.05;100.00;98241.66;5061705;28;19916;-84
2021/01/01 09:50:58;;;;;;;;;;;;;;;2.04;100.00;98243.38;5066763;28;19920;-83
2021/01/01 09:53:24;;;;;;;;;;;;;;;2.00;100.00;98239.19;5050598;28;19912;-84
2021/01/01 09:55:50;;;;;;;;;;;;;;;1.83;100.00;98248.69;5065008;28;19916;-84
2021/01/01 09:58:16;;;;;;;;;;;;;;;1.93;100.00;98247.72;5066373;28;19912;-85
2021/01/01 10:00:41;;;;;;;;;;;;;;;1.73;100.00;98249.59;5050450;28;19928;-84
2021/01/01 10:03:07;;;;;;;;;;;;;;;1.91;100.00;98253.66;5067261;28;19920;-86
2021/01/01 10:05:32;;;;;;;;;;;;;;;2.09;100.00;98244.16;5048682;28;19927;-84
2021/01/01 10:07:57;;;;;;;;;;;;;;;2.29;100.00;98250.75;5066027;28;19924;-84
2021/01/01 10:10:23;;;;;;;;;;;;;;;2.40;100.00;98254.03;5050631;28;19919;-84
2021/01/01 10:12:48;;;;;;;;;;;;;;;2.20;100.00;98255.94;5066685;28;20400;-84
2021/01/01 10:15:13;;;;;;;;;;;;;;;2.15;100.00;98263.59;5068651;28;20582;-83
2021/01/01 10:17:39;;;;;;;;;;;;;;;2.32;100.00;98253.25;5055538;28;19944;-84
2021/01/01 10:20:04;;;;;;;;;;;;;;;2.37;100.00;98261.66;5068478;28;19916;-84
2021/01/01 10:22:30;;;;;;;;;;;;;;;2.22;100.00;98261.84;5060153;28;19916;-83
2021/01/01 10:24:55;;;;;;;;;;;;;;;2.44;100.00;98263.28;5070306;28;19920;-84
2021/01/01 10:27:21;;;;;;;;;;;;;;;2.69;100.00;98262.97;5067832;28;20492;-83
2021/01/01 10:29:46;;;;;;;;;;;;;;;2.71;100.00;98262.13;5059719;28;19927;-83
2021/01/01 10:32:12;;;;;;;;;;;;;;;2.22;100.00;98261.84;5069152;28;19938;-84
2021/01/01 10:34:41;;;;;;;;;;;;;;;2.43;100.00;98264.13;5059542;28;19920;-82
2021/01/01 10:37:06;;;;;;;;;;;;;;;2.53;100.00;98264.88;5068827;28;19965;-83
2021/01/01 10:39:32;;;;;;;;;;;;;;;2.50;100.00;98270.00;5051074;28;19928;-83
2021/01/01 10:41:57;;;;;;;;;;;;;;;2.44;100.00;98263.28;5051679;28;20030;-83
2021/01/01 10:44:22;;;;;;;;;;;;;;;2.87;100.00;98264.47;5068199;28;19918;-84
2021/01/01 10:46:52;;;;;;;;;;;;;;;2.97;99.99;98260.13;5045260;28;19973;-84
2021/01/01 10:49:24;;;;;;;;;;;;;;;2.71;99.91;98263.81;5069510;28;19942;-82
2021/01/01 10:51:49;;;;;;;;;;;;;;;2.95;99.08;98262.66;5060221;28;19920;-83
2021/01/01 10:54:15;;;;;;;;;;;;;;;2.75;99.68;98260.38;5059182;28;20365;-83
2021/01/01 10:56:40;;;;;;;;;;;;;;;2.38;100.00;98263.34;5053144;28;19998;-83
2021/01/01 10:59:05;;;;;;;;;;;;;;;2.45;100.00;98264.97;5069405;28;20389;-83
2021/01/01 11:01:31;;;;;;;;;;;;;;;2.39;100.00;98267.56;5049735;28;19926;-83
2021/01/01 11:03:56;;;;;;;;;;;;;;;2.81;100.00;98262.84;5067295;28;19920;-83
2021/01/01 11:06:22;;;;;;;;;;;;;;;3.20;99.00;98257.25;5052649;28;19920;-83
2021/01/01 11:08:47;;;;;;;;;;;;;;;2.95;100.00;98262.66;5067638;28;19916;-83
2021/01/01 11:11:14;;;;;;;;;;;;;;;3.06;99.85;98263.38;5052266;28;20430;-83
2021/01/01 11:13:53;;;;;;;;;;;;;;;3.28;100.00;98265.59;5067470;28;19924;-83
2021/01/01 12:20:13;;;;;;;;;;;;;;;1.99;99.82;98252.75;5067935;28;19938;-82
2021/01/01 12:25:03;;;;;;;;;;;;;;;2.05;99.48;98247.63;5068888;28;19951;-82
2021/01/01 12:27:30;;;;;;;;;;;;;;;2.06;99.92;98248.44;5068529;28;20032;-82
2021/01/01 12:29:55;;;;;;;;;;;;;;;2.05;99.58;98251.84;5068672;28;20073;-82
2021/01/01 12:32:21;;;;;;;;;;;;;;;2.18;99.82;98250.84;5058729;28;20391;-82
2021/01/01 12:34:47;;;;;;;;;;;;;;;2.22;100.00;98247.44;5068946;28;19912;-82
2021/01/01 12:37:12;;;;;;;;;;;;;;;2.05;98.93;98252.69;5069349;28;19991;-82
2021/01/01 12:39:38;;;;;;;;;;;;;;;2.02;99.89;98247.63;5052110;28;19920;-82
2021/01/01 12:42:03;;;;;;;;;;;;;;;2.03;98.64;98251.88;5051953;28;19926;-82
2021/01/01 12:44:32;;;;;;;;;;;;;;;2.20;99.44;98253.38;5051165;28;20916;-82
2021/01/01 12:46:58;;;;;;;;;;;;;;;2.17;97.70;98253.44;5050784;28;19915;-82
2021/01/01 12:49:24;;;;;;;;;;;;;;;2.06;97.40;98264.53;5063496;28;19967;-84
2021/01/01 12:51:49;;;;;;;;;;;;;;;2.08;97.96;98257.72;5068211;28;19951;-82
2021/01/01 12:54:14;;;;;;;;;;;;;;;2.09;96.97;98256.88;5061583;28;20048;-82
2021/01/01 12:56:40;;;;;;;;;;;;;;;2.08;96.39;98259.44;5050424;28;19916;-83
2021/01/01 12:59:05;;;;;;;;;;;;;;;2.38;96.95;98260.81;5068179;28;19919;-82
2021/01/01 13:01:31;;;;;;;;;;;;;;;2.26;96.23;98263.50;5062564;28;20425;-82
2021/01/01 13:03:57;;;;;;;;;;;;;;;2.37;94.38;98264.19;5066910;28;19916;-82
2021/01/01 13:06:22;;;;;;;;;;;;;;;2.37;96.17;98269.28;5084452;28;19916;-82
2021/01/01 13:08:47;;;;;;;;;;;;;;;2.27;95.34;98270.25;5066578;28;20848;-83
2021/01/01 13:11:13;;;;;;;;;;;;;;;2.24;94.25;98275.38;5051735;28;19919;-82
2021/01/01 13:13:38;;;;;;;;;;;;;;;2.35;95.67;98271.03;5050222;28;19916;-82
2021/01/01 13:16:03;;;;;;;;;;;;;;;2.44;96.03;98276.00;5068414;28;20440;-83
2021/01/01 13:18:31;;;;;;;;;;;;;;;2.53;94.63;98274.19;5067634;28;19924;-82
2021/01/01 13:20:56;;;;;;;;;;;;;;;2.63;94.82;98275.78;5065281;28;19961;-83
2021/01/01 13:23:21;;;;;;;;;;;;;;;2.44;93.82;98276.00;5059035;28;19995;-82
2021/01/01 13:25:47;;;;;;;;;;;;;;;2.58;95.35;98274.97;5067826;28;19920;-83
2021/01/01 13:28:12;;;;;;;;;;;;;;;2.55;94.55;98278.41;5067398;28;19916;-82
2021/01/01 13:30:38;;;;;;;;;;;;;;;2.47;93.96;98281.03;5067891;28;19920;-83
2021/01/01 13:33:03;;;;;;;;;;;;;;;2.29;92.69;98277.00;5049638;28;19920;-82
2021/01/01 13:35:28;;;;;;;;;;;;;;;2.23;94.08;98278.75;5067044;28;19912;-82
2021/01/01 13:37:54;;;;;;;;;;;;;;;2.22;94.29;98279.63;5063081;28;19915;-82
2021/01/01 13:40:19;;;;;;;;;;;;;;;2.28;95.69;98288.03;5049741;28;20480;-82
2021/01/01 13:42:44;;;;;;;;;;;;;;;2.20;93.34;98291.50;5057203;28;20566;-82
2021/01/01 13:45:10;;;;;;;;;;;;;;;2.23;92.86;98287.22;5064645;28;19916;-82
2021/01/01 13:47:35;;;;;;;;;;;;;;;2.25;94.17;98290.56;5050121;28;20407;-82
2021/01/01 13:50:02;;;;;;;;;;;;;;;2.15;95.53;98296.63;5066191;28;19916;-82
2021/01/01 13:52:27;;;;;;;;;;;;;;;2.26;96.25;98291.44;5066500;28;20253;-82